The World — C6RW4 — position and weather

sailwx.info

Track history (hours):
 
Tides and Currents Weather Stations Pressure Air Temp Water Temp Dewpoint Dewpoint Depression Visibility Wind Speed Wind Dir Waves Ship Positions

The World

Operator: Bergshav-Norway

Last reported at 2018-Feb-17 02:38 UTC. Time now 2018-Feb-24 12:20 UTC.
Position S 23°27' W 043°51'.

Length 196 m; draft 7 m.

Type: Passenger vessel. MMSI: 311213000.

Date/timePositionNaut miles runAvg speedWind from/ knotsBaromVisibWave heightAir tempDewpointWater temp
2018-Feb-17 02:38S 23°27' W 043°51'212.8
2018-Feb-17 02:28S 23°27' W 043°49'612.4
2018-Feb-17 02:00S 23°26' W 043°43'612.1
2018-Feb-17 01:30S 23°25' W 043°37'612.1
2018-Feb-17 01:00S 23°23' W 043°30'612.3
2018-Feb-17 00:31S 23°22' W 043°24'612.5
2018-Feb-17 00:01S 23°21' W 043°17'713.0
2018-Feb-16 23:30S 23°20' W 043°10'613.0
2018-Feb-16 23:01S 23°18' W 043°03'612.6
2018-Feb-16 22:30S 23°18' W 042°56'612.4
2018-Feb-16 22:00S 23°16' W 042°50'613.0
2018-Feb-16 21:30S 23°15' W 042°43'815.4
2018-Feb-16 21:00S 23°14' W 042°34'  
Track history (hours):
 
Tides and Currents Weather Stations Pressure Air Temp Water Temp Dewpoint Dewpoint Depression Visibility Wind Speed Wind Dir Waves Ship Positions

The World

Operator: Bergshav-Norway

Last reported at 2018-Feb-17 02:38 UTC. Time now 2018-Feb-24 12:20 UTC.
Position S 23°27' W 043°51'.

Length 196 m; draft 7 m.

Type: Passenger vessel. MMSI: 311213000.

Date/timePositionNaut miles runAvg speedWind from/ knotsBaromVisibWave heightAir tempDewpointWater temp
2018-Feb-17 02:38S 23°27' W 043°51'212.8
2018-Feb-17 02:28S 23°27' W 043°49'612.4
2018-Feb-17 02:00S 23°26' W 043°43'612.1
2018-Feb-17 01:30S 23°25' W 043°37'612.1
2018-Feb-17 01:00S 23°23' W 043°30'612.3
2018-Feb-17 00:31S 23°22' W 043°24'612.5
2018-Feb-17 00:01S 23°21' W 043°17'713.0
2018-Feb-16 23:30S 23°20' W 043°10'613.0
2018-Feb-16 23:01S 23°18' W 043°03'612.6
2018-Feb-16 22:30S 23°18' W 042°56'612.4
2018-Feb-16 22:00S 23°16' W 042°50'613.0
2018-Feb-16 21:30S 23°15' W 042°43'815.4
2018-Feb-16 21:00S 23°14' W 042°34'  

Dump ship's entire track history